sensor_id;sensor_type;location;lat;lon;timestamp;pressure;altitude;pressure_sealevel;temperature;humidity
48027;BME280;50714;49.208;5.364;2022-12-04T00:07:52;99102.91;;;3.18;74.90
48027;BME280;50714;49.208;5.364;2022-12-04T00:17:53;99092.94;;;3.28;74.92
48027;BME280;50714;49.208;5.364;2022-12-04T00:27:53;99092.94;;;3.28;74.60
48027;BME280;50714;49.208;5.364;2022-12-04T00:37:54;99097.41;;;3.12;75.32
48027;BME280;50714;49.208;5.364;2022-12-04T00:47:54;99095.56;;;3.12;75.34
48027;BME280;50714;49.208;5.364;2022-12-04T00:57:55;99092.91;;;3.20;75.90
48027;BME280;50714;49.208;5.364;2022-12-04T01:07:55;99080.75;;;3.18;75.15
48027;BME280;50714;49.208;5.364;2022-12-04T01:17:56;99086.41;;;3.15;75.39
48027;BME280;50714;49.208;5.364;2022-12-04T01:27:56;99088.59;;;3.19;75.35
48027;BME280;50714;49.208;5.364;2022-12-04T01:37:56;99105.06;;;3.31;74.82
48027;BME280;50714;49.208;5.364;2022-12-04T01:48:04;99117.91;;;3.03;76.23
48027;BME280;50714;49.208;5.364;2022-12-04T01:58:06;99104.06;;;3.07;75.67
48027;BME280;50714;49.208;5.364;2022-12-04T02:08:07;99106.25;;;3.04;75.56
48027;BME280;50714;49.208;5.364;2022-12-04T02:18:34;99095.91;;;3.09;76.25
48027;BME280;50714;49.208;5.364;2022-12-04T02:39:29;99085.75;;;3.21;76.40
48027;BME280;50714;49.208;5.364;2022-12-04T02:50:06;99092.56;;;3.31;75.78
48027;BME280;50714;49.208;5.364;2022-12-04T03:00:08;99095.91;;;3.17;76.42
48027;BME280;50714;49.208;5.364;2022-12-04T03:10:14;99094.25;;;3.16;76.09
48027;BME280;50714;49.208;5.364;2022-12-04T03:20:17;99097.91;;;2.99;76.60
48027;BME280;50714;49.208;5.364;2022-12-04T03:30:20;99113.41;;;3.03;76.97
48027;BME280;50714;49.208;5.364;2022-12-04T03:40:40;99111.25;;;3.07;77.13
48027;BME280;50714;49.208;5.364;2022-12-04T03:50:54;99098.72;;;3.07;76.67
48027;BME280;50714;49.208;5.364;2022-12-04T04:00:59;99078.06;;;3.09;76.77
48027;BME280;50714;49.208;5.364;2022-12-04T04:11:31;99081.41;;;3.03;77.67
48027;BME280;50714;49.208;5.364;2022-12-04T04:21:32;99075.75;;;3.06;76.59
48027;BME280;50714;49.208;5.364;2022-12-04T04:32:02;99070.41;;;2.98;76.92
48027;BME280;50714;49.208;5.364;2022-12-04T04:42:13;99069.59;;;3.06;76.80
48027;BME280;50714;49.208;5.364;2022-12-04T04:52:17;99075.41;;;3.09;77.52
48027;BME280;50714;49.208;5.364;2022-12-04T05:02:19;99072.59;;;3.03;77.22
48027;BME280;50714;49.208;5.364;2022-12-04T05:12:19;99071.91;;;2.93;77.76
48027;BME280;50714;49.208;5.364;2022-12-04T05:22:23;99071.25;;;2.99;77.52
48027;BME280;50714;49.208;5.364;2022-12-04T05:32:27;99068.75;;;3.05;77.28
48027;BME280;50714;49.208;5.364;2022-12-04T05:42:28;99085.41;;;2.83;77.67
48027;BME280;50714;49.208;5.364;2022-12-04T05:52:28;99097.41;;;2.95;77.87
48027;BME280;50714;49.208;5.364;2022-12-04T06:02:29;99094.56;;;2.97;77.78
48027;BME280;50714;49.208;5.364;2022-12-04T06:12:29;99106.03;;;2.89;77.49
48027;BME280;50714;49.208;5.364;2022-12-04T06:22:30;99095.06;;;2.92;78.22
48027;BME280;50714;49.208;5.364;2022-12-04T06:32:30;99110.72;;;2.95;78.39
48027;BME280;50714;49.208;5.364;2022-12-04T06:42:30;99105.03;;;2.90;77.71
48027;BME280;50714;49.208;5.364;2022-12-04T06:52:32;99116.06;;;2.95;77.48
48027;BME280;50714;49.208;5.364;2022-12-04T07:02:33;99113.06;;;2.98;77.74
48027;BME280;50714;49.208;5.364;2022-12-04T07:12:33;99120.56;;;2.95;77.48
48027;BME280;50714;49.208;5.364;2022-12-04T07:22:33;99143.50;;;2.88;77.46
48027;BME280;50714;49.208;5.364;2022-12-04T07:32:34;99142.72;;;3.03;77.52
48027;BME280;50714;49.208;5.364;2022-12-04T07:42:34;99151.66;;;2.86;78.47
48027;BME280;50714;49.208;5.364;2022-12-04T07:52:36;99170.00;;;2.89;78.13
48027;BME280;50714;49.208;5.364;2022-12-04T08:02:37;99176.50;;;2.79;77.66
48027;BME280;50714;49.208;5.364;2022-12-04T08:12:37;99184.56;;;2.61;77.74
48027;BME280;50714;49.208;5.364;2022-12-04T08:22:37;99193.94;;;2.73;77.92
48027;BME280;50714;49.208;5.364;2022-12-04T08:32:38;99177.13;;;2.72;77.86
48027;BME280;50714;49.208;5.364;2022-12-04T08:42:38;99147.34;;;2.77;78.12
48027;BME280;50714;49.208;5.364;2022-12-04T08:52:38;99157.16;;;2.85;76.95
48027;BME280;50714;49.208;5.364;2022-12-04T09:02:39;99169.28;;;2.71;78.14
48027;BME280;50714;49.208;5.364;2022-12-04T09:12:39;99179.81;;;2.89;77.54
48027;BME280;50714;49.208;5.364;2022-12-04T09:22:39;99176.66;;;2.85;78.31
48027;BME280;50714;49.208;5.364;2022-12-04T09:32:40;99163.03;;;2.96;77.54
48027;BME280;50714;49.208;5.364;2022-12-04T09:42:49;99149.75;;;3.04;77.14
48027;BME280;50714;49.208;5.364;2022-12-04T09:53:08;99135.56;;;3.12;77.90
48027;BME280;50714;49.208;5.364;2022-12-04T10:03:21;99128.41;;;3.21;76.98
48027;BME280;50714;49.208;5.364;2022-12-04T10:13:30;99121.22;;;3.13;77.15
48027;BME280;50714;49.208;5.364;2022-12-04T10:33:51;99115.25;;;3.35;75.04
48027;BME280;50714;49.208;5.364;2022-12-04T10:43:52;99115.44;;;3.50;76.09
48027;BME280;50714;49.208;5.364;2022-12-04T10:53:54;99101.41;;;3.32;75.60
48027;BME280;50714;49.208;5.364;2022-12-04T11:04:03;99086.75;;;3.28;76.15
48027;BME280;50714;49.208;5.364;2022-12-04T11:14:17;99083.91;;;3.37;76.29
48027;BME280;50714;49.208;5.364;2022-12-04T11:24:23;99106.56;;;3.33;76.14
48027;BME280;50714;49.208;5.364;2022-12-04T11:34:35;99101.44;;;3.24;76.17
48027;BME280;50714;49.208;5.364;2022-12-04T11:44:36;99092.59;;;3.23;76.81
48027;BME280;50714;49.208;5.364;2022-12-04T11:55:02;99079.25;;;3.31;76.60
48027;BME280;50714;49.208;5.364;2022-12-04T12:56:39;99091.91;;;3.21;77.97
48027;BME280;50714;49.208;5.364;2022-12-04T13:06:42;99075.41;;;3.34;76.63
48027;BME280;50714;49.208;5.364;2022-12-04T13:16:49;99064.44;;;3.21;77.56
48027;BME280;50714;49.208;5.364;2022-12-04T13:47:33;99065.75;;;3.25;78.13
48027;BME280;50714;49.208;5.364;2022-12-04T13:57:34;99068.91;;;3.12;78.02
48027;BME280;50714;49.208;5.364;2022-12-04T14:07:39;99070.09;;;3.26;77.74
48027;BME280;50714;49.208;5.364;2022-12-04T14:17:40;99067.75;;;3.23;78.22
48027;BME280;50714;49.208;5.364;2022-12-04T14:27:45;99068.44;;;3.25;78.69
48027;BME280;50714;49.208;5.364;2022-12-04T14:37:51;99068.41;;;3.17;78.16
48027;BME280;50714;49.208;5.364;2022-12-04T14:58:16;99069.59;;;3.06;79.35
48027;BME280;50714;49.208;5.364;2022-12-04T15:08:29;99068.41;;;3.08;79.44
48027;BME280;50714;49.208;5.364;2022-12-04T15:18:29;99074.94;;;3.06;80.29
48027;BME280;50714;49.208;5.364;2022-12-04T15:28:33;99071.06;;;3.08;81.17
48027;BME280;50714;49.208;5.364;2022-12-04T15:38:39;99068.09;;;3.03;81.86
48027;BME280;50714;49.208;5.364;2022-12-04T15:48:39;99073.94;;;3.07;82.11
48027;BME280;50714;49.208;5.364;2022-12-04T15:58:40;99069.59;;;3.06;81.68
48027;BME280;50714;49.208;5.364;2022-12-04T16:19:32;99078.75;;;3.20;82.34
48027;BME280;50714;49.208;5.364;2022-12-04T16:29:33;99076.09;;;3.20;83.02
48027;BME280;50714;49.208;5.364;2022-12-04T16:39:34;99078.25;;;3.16;82.84
48027;BME280;50714;49.208;5.364;2022-12-04T16:49:34;99084.25;;;3.26;82.62
48027;BME280;50714;49.208;5.364;2022-12-04T16:59:35;99092.59;;;3.23;82.99
48027;BME280;50714;49.208;5.364;2022-12-04T17:09:35;99101.09;;;3.27;82.59
48027;BME280;50714;49.208;5.364;2022-12-04T17:19:35;99107.75;;;3.23;82.63
48027;BME280;50714;49.208;5.364;2022-12-04T17:29:36;99116.91;;;3.36;83.36
48027;BME280;50714;49.208;5.364;2022-12-04T17:39:36;99122.25;;;3.36;82.82
48027;BME280;50714;49.208;5.364;2022-12-04T17:49:37;99127.25;;;3.39;83.34
48027;BME280;50714;49.208;5.364;2022-12-04T17:59:37;99125.91;;;3.35;83.21
48027;BME280;50714;49.208;5.364;2022-12-04T18:09:38;99143.09;;;3.41;83.89
48027;BME280;50714;49.208;5.364;2022-12-04T18:19:38;99150.25;;;3.40;84.03
48027;BME280;50714;49.208;5.364;2022-12-04T18:29:39;99160.78;;;3.42;83.92
48027;BME280;50714;49.208;5.364;2022-12-04T18:39:39;99161.78;;;3.41;84.20
48027;BME280;50714;49.208;5.364;2022-12-04T18:49:40;99171.75;;;3.39;84.10
48027;BME280;50714;49.208;5.364;2022-12-04T18:59:40;99172.44;;;3.41;84.21
48027;BME280;50714;49.208;5.364;2022-12-04T19:09:40;99182.28;;;3.40;84.52
48027;BME280;50714;49.208;5.364;2022-12-04T19:19:41;99182.28;;;3.40;84.42
48027;BME280;50714;49.208;5.364;2022-12-04T19:29:42;99195.09;;;3.29;84.91
48027;BME280;50714;49.208;5.364;2022-12-04T19:39:43;99195.75;;;3.31;84.70
48027;BME280;50714;49.208;5.364;2022-12-04T19:49:43;99194.44;;;3.35;85.13
48027;BME280;50714;49.208;5.364;2022-12-04T19:59:44;99200.09;;;3.32;84.97
48027;BME280;50714;49.208;5.364;2022-12-04T20:09:44;99203.94;;;3.37;85.57
48027;BME280;50714;49.208;5.364;2022-12-04T20:19:46;99202.44;;;3.35;85.18
48027;BME280;50714;49.208;5.364;2022-12-04T20:29:46;99202.13;;;3.46;85.24
48027;BME280;50714;49.208;5.364;2022-12-04T20:39:47;99191.78;;;3.51;84.77
48027;BME280;50714;49.208;5.364;2022-12-04T20:49:47;99193.47;;;3.52;84.93
48027;BME280;50714;49.208;5.364;2022-12-04T20:59:48;99193.31;;;3.54;84.70
48027;BME280;50714;49.208;5.364;2022-12-04T21:09:48;99205.13;;;3.59;84.85
48027;BME280;50714;49.208;5.364;2022-12-04T21:19:49;99202.78;;;3.56;85.20
48027;BME280;50714;49.208;5.364;2022-12-04T21:29:50;99207.63;;;3.53;84.81
48027;BME280;50714;49.208;5.364;2022-12-04T21:39:50;99205.28;;;3.58;85.18
48027;BME280;50714;49.208;5.364;2022-12-04T21:49:50;99208.47;;;3.53;85.42
48027;BME280;50714;49.208;5.364;2022-12-04T21:59:51;99216.47;;;3.53;84.87
48027;BME280;50714;49.208;5.364;2022-12-04T22:09:51;99216.13;;;3.56;84.45
48027;BME280;50714;49.208;5.364;2022-12-04T22:19:52;99225.47;;;3.60;85.43
48027;BME280;50714;49.208;5.364;2022-12-04T22:29:52;99245.81;;;3.53;84.98
48027;BME280;50714;49.208;5.364;2022-12-04T22:39:52;99253.13;;;3.43;85.29
48027;BME280;50714;49.208;5.364;2022-12-04T22:49:53;99266.66;;;3.50;85.65
48027;BME280;50714;49.208;5.364;2022-12-04T22:59:53;99285.34;;;3.50;86.06
48027;BME280;50714;49.208;5.364;2022-12-04T23:09:53;99288.81;;;3.42;86.02
48027;BME280;50714;49.208;5.364;2022-12-04T23:19:54;99297.84;;;3.49;85.67
48027;BME280;50714;49.208;5.364;2022-12-04T23:29:54;99303.00;;;3.51;86.49
48027;BME280;50714;49.208;5.364;2022-12-04T23:39:54;99300.31;;;3.42;85.65
48027;BME280;50714;49.208;5.364;2022-12-04T23:49:55;99293.97;;;3.43;85.62
48027;BME280;50714;49.208;5.364;2022-12-04T23:59:55;99294.81;;;3.44;85.67
